Time;durP1;ratioP1;P1;durP2;ratioP2;P2;SDS_P1;SDS_P2;PMS_P1;PMS_P2;Temp;Humidity;BMP_temperature;BMP_pressure;BME280_temperature;BME280_humidity;BME280_pressure;Samples;Min_cycle;Max_cycle;Signal;HPM_P1;HPM_P2
2021/10/10 00:00:45;;;;;;;17.37;9.57;;;;;;;8.91;70.31;102525.75;5095055;28;20210;-66
2021/10/10 00:03:11;;;;;;;18.23;9.73;;;;;;;9.04;70.59;102527.28;5095463;28;20181;-65
2021/10/10 00:05:36;;;;;;;17.50;10.07;;;;;;;8.86;71.07;102524.97;5093279;28;20205;-65
2021/10/10 00:08:01;;;;;;;17.13;9.50;;;;;;;8.95;70.90;102522.16;5094612;28;20174;-66
2021/10/10 00:10:27;;;;;;;16.90;9.60;;;;;;;8.79;70.93;102515.34;5094306;28;20231;-65
2021/10/10 00:12:52;;;;;;;15.87;9.07;;;;;;;9.09;70.37;102520.06;5094401;28;20630;-65
2021/10/10 00:15:17;;;;;;;14.83;9.73;;;;;;;8.93;71.10;102521.31;5094196;28;20235;-65
2021/10/10 00:17:43;;;;;;;14.80;9.57;;;;;;;8.81;71.56;102518.84;5094251;28;20178;-66
2021/10/10 00:20:08;;;;;;;15.00;9.53;;;;;;;9.03;70.71;102525.53;5094494;28;20231;-66
2021/10/10 00:22:34;;;;;;;12.43;9.10;;;;;;;8.62;71.58;102514.78;5093427;28;20223;-66
2021/10/10 00:24:59;;;;;;;14.97;8.70;;;;;;;8.91;71.20;102515.09;5092718;28;20717;-66
2021/10/10 00:27:24;;;;;;;13.57;8.47;;;;;;;8.98;70.73;102515.88;5094451;28;20190;-66
2021/10/10 00:29:50;;;;;;;14.03;8.83;;;;;;;8.97;70.61;102509.69;5093945;28;20271;-66
2021/10/10 00:32:16;;;;;;;13.13;8.73;;;;;;;9.06;70.70;102514.81;5094279;28;20170;-67
2021/10/10 00:34:41;;;;;;;12.40;8.60;;;;;;;8.90;70.80;102505.34;5094033;28;20736;-66
2021/10/10 00:37:06;;;;;;;20.90;8.73;;;;;;;8.97;70.31;102501.69;5093961;28;20705;-67
2021/10/10 00:39:32;;;;;;;13.47;8.93;;;;;;;8.97;70.44;102501.69;5094271;28;20223;-66
2021/10/10 00:41:57;;;;;;;16.43;8.90;;;;;;;9.06;70.31;102498.84;5093844;28;20178;-66
2021/10/10 00:44:23;;;;;;;13.83;8.70;;;;;;;8.78;71.23;102495.81;5093895;28;20193;-66
2021/10/10 00:46:49;;;;;;;16.23;8.40;;;;;;;8.80;71.69;102501.13;5093772;28;20184;-66
2021/10/10 00:49:14;;;;;;;14.87;7.93;;;;;;;8.72;71.62;102495.94;5092454;28;20198;-66
2021/10/10 00:51:43;;;;;;;14.63;9.63;;;;;;;8.66;72.25;102497.84;5092887;28;20266;-66
2021/10/10 00:54:10;;;;;;;14.17;9.13;;;;;;;8.68;72.44;102504.03;5092639;28;20198;-66
2021/10/10 00:56:36;;;;;;;14.50;9.00;;;;;;;8.78;72.08;102506.47;5092610;28;20185;-66
2021/10/10 00:59:03;;;;;;;20.63;8.83;;;;;;;8.68;72.07;102501.38;5092566;28;20223;-66
2021/10/10 01:01:29;;;;;;;14.07;8.83;;;;;;;8.73;71.42;102499.50;5093706;28;20231;-66
2021/10/10 01:03:54;;;;;;;16.07;9.00;;;;;;;8.69;71.76;102495.13;5097235;28;20182;-67
2021/10/10 01:06:20;;;;;;;13.00;9.00;;;;;;;8.68;72.25;102496.91;5095840;28;20171;-66
2021/10/10 01:08:45;;;;;;;11.37;8.30;;;;;;;8.72;71.67;102495.06;5093781;28;20198;-66
2021/10/10 01:11:11;;;;;;;17.00;8.73;;;;;;;8.75;71.99;102505.66;5093861;28;20651;-66
2021/10/10 01:13:37;;;;;;;14.93;9.23;;;;;;;8.71;71.65;102498.66;5093675;28;20227;-66
2021/10/10 01:16:02;;;;;;;17.07;8.70;;;;;;;8.70;72.11;102499.56;5092539;28;20190;-66
2021/10/10 01:18:28;;;;;;;12.53;8.93;;;;;;;8.63;72.30;102498.78;5075469;28;20170;-66
2021/10/10 01:20:54;;;;;;;15.13;9.10;;;;;;;8.68;72.31;102496.03;5092540;28;20235;-66
2021/10/10 01:23:20;;;;;;;14.47;9.10;;;;;;;8.67;72.10;102500.47;5093132;28;20644;-66
2021/10/10 01:25:45;;;;;;;15.80;9.47;;;;;;;8.64;72.12;102495.22;5093071;28;20201;-66
2021/10/10 01:28:10;;;;;;;14.87;8.90;;;;;;;8.61;72.31;102489.06;5092435;28;20193;-66
2021/10/10 01:30:36;;;;;;;17.43;9.50;;;;;;;8.60;72.93;102488.22;5093225;28;20209;-66
2021/10/10 01:33:02;;;;;;;12.53;8.73;;;;;;;8.61;72.54;102489.06;5093475;28;20221;-66
2021/10/10 01:35:27;;;;;;;15.23;9.07;;;;;;;8.51;72.70;102482.16;5093205;28;20197;-66
2021/10/10 01:37:52;;;;;;;18.13;9.30;;;;;;;8.54;72.81;102493.63;5092976;28;20178;-65
2021/10/10 01:40:18;;;;;;;13.70;9.30;;;;;;;8.47;73.16;102481.31;5093567;28;20209;-66
2021/10/10 01:42:43;;;;;;;12.73;9.40;;;;;;;8.46;73.46;102487.56;5093395;28;20174;-66
2021/10/10 01:45:23;;;;;;;12.40;9.13;;;;;;;8.53;73.42;102491.84;5093116;28;20205;-66
2021/10/10 01:47:48;;;;;;;16.67;9.10;;;;;;;8.38;73.11;102481.50;5093530;28;20215;-66
2021/10/10 01:50:14;;;;;;;14.87;9.57;;;;;;;8.36;73.26;102485.97;5092975;28;20194;-67
2021/10/10 01:52:41;;;;;;;15.13;8.83;;;;;;;8.33;73.78;102484.25;5092921;28;20174;-66
2021/10/10 01:55:07;;;;;;;12.90;9.20;;;;;;;8.28;73.83;102480.75;5091739;28;20194;-66
2021/10/10 01:57:32;;;;;;;13.03;9.07;;;;;;;8.24;74.01;102484.38;5092937;28;20174;-65
2021/10/10 01:59:57;;;;;;;15.77;9.53;;;;;;;8.20;74.15;102481.81;5092834;28;20175;-65
2021/10/10 02:02:23;;;;;;;13.27;9.57;;;;;;;8.14;74.29;102473.00;5093420;28;20257;-66
2021/10/10 02:04:48;;;;;;;16.30;9.90;;;;;;;8.11;74.47;102469.50;5096051;28;20717;-66
2021/10/10 02:07:13;;;;;;;15.40;10.33;;;;;;;8.07;74.66;102473.13;5097110;28;20174;-67
2021/10/10 02:09:42;;;;;;;14.57;9.97;;;;;;;8.03;74.99;102472.31;5096886;28;20221;-65
2021/10/10 02:12:07;;;;;;;24.20;9.30;;;;;;;8.03;75.08;102474.97;5097058;28;20196;-65
2021/10/10 02:14:34;;;;;;;15.37;9.47;;;;;;;7.99;75.03;102478.56;5096575;28;20202;-65
2021/10/10 02:16:59;;;;;;;15.83;10.33;;;;;;;7.90;74.98;102473.41;5096939;28;20208;-65
2021/10/10 02:19:24;;;;;;;17.83;11.03;;;;;;;7.82;75.79;102476.19;5096543;28;20202;-65
2021/10/10 02:21:50;;;;;;;13.37;10.17;;;;;;;7.82;75.79;102470.00;5096703;28;20178;-66
2021/10/10 02:24:15;;;;;;;18.60;10.13;;;;;;;7.80;75.42;102462.06;5095482;28;20210;-65
2021/10/10 02:26:40;;;;;;;14.57;10.17;;;;;;;7.80;75.90;102462.06;5096871;28;20685;-65
2021/10/10 02:29:05;;;;;;;14.80;9.57;;;;;;;7.87;74.98;102462.84;5096248;28;20194;-66
2021/10/10 02:31:31;;;;;;;15.07;9.50;;;;;;;7.87;74.99;102465.50;5096514;28;20227;-65
2021/10/10 02:33:56;;;;;;;16.73;10.17;;;;;;;7.84;75.32;102462.88;5096483;28;20273;-66
2021/10/10 02:36:21;;;;;;;17.10;9.60;;;;;;;7.84;75.54;102463.75;5096901;28;20178;-65
2021/10/10 02:38:47;;;;;;;17.70;9.43;;;;;;;7.87;75.37;102464.59;5096410;28;20197;-66
2021/10/10 02:41:12;;;;;;;17.43;10.37;;;;;;;7.82;75.69;102462.91;5096182;28;20615;-66
2021/10/10 02:43:37;;;;;;;16.60;9.33;;;;;;;7.80;75.75;102456.75;5094918;28;20170;-66
2021/10/10 02:46:02;;;;;;;16.00;10.43;;;;;;;7.77;76.00;102447.91;5096234;28;20194;-66
2021/10/10 02:48:28;;;;;;;19.37;10.23;;;;;;;7.72;75.45;102441.78;5095947;28;20572;-66
2021/10/10 02:50:53;;;;;;;17.43;10.73;;;;;;;7.58;76.25;102443.78;5095547;28;20210;-66
2021/10/10 02:53:18;;;;;;;21.97;10.63;;;;;;;7.63;76.37;102442.81;5096030;28;20178;-66
2021/10/10 02:55:44;;;;;;;13.33;10.30;;;;;;;7.68;76.46;102440.97;5095816;28;20225;-66
2021/10/10 02:58:09;;;;;;;17.57;9.83;;;;;;;7.70;75.78;102439.16;5095845;28;20170;-67
2021/10/10 03:00:34;;;;;;;16.17;9.90;;;;;;;7.63;76.25;102442.81;5095795;28;20478;-66
2021/10/10 03:02:59;;;;;;;14.50;10.47;;;;;;;7.44;77.01;102444.00;5095723;28;20174;-66
2021/10/10 03:05:25;;;;;;;16.17;10.47;;;;;;;7.45;77.17;102443.97;5095708;28;20194;-66
2021/10/10 03:07:50;;;;;;;15.67;10.20;;;;;;;7.44;77.31;102446.66;5094980;28;20217;-66
2021/10/10 03:10:15;;;;;;;16.67;10.93;;;;;;;7.44;77.20;102444.00;5095844;28;20202;-66
2021/10/10 03:12:41;;;;;;;17.20;11.20;;;;;;;7.38;77.66;102447.59;5095777;28;20170;-66
2021/10/10 03:15:06;;;;;;;19.77;10.23;;;;;;;7.44;77.40;102441.34;5094578;28;20693;-66
2021/10/10 03:17:31;;;;;;;18.77;10.33;;;;;;;7.40;77.30;102440.47;5094321;28;20178;-66
2021/10/10 03:19:57;;;;;;;15.83;10.40;;;;;;;7.41;77.14;102430.72;5095838;28;20198;-66
2021/10/10 03:22:23;;;;;;;16.40;11.03;;;;;;;7.49;76.80;102432.41;5094394;28;20552;-66
2021/10/10 03:24:48;;;;;;;16.13;10.33;;;;;;;7.31;77.09;102423.81;5095931;28;20209;-66
2021/10/10 03:27:14;;;;;;;15.60;11.07;;;;;;;7.41;76.87;102431.59;5096080;28;20658;-65
2021/10/10 03:29:39;;;;;;;20.43;11.13;;;;;;;7.31;77.20;102429.13;5095751;28;20663;-66
2021/10/10 03:32:04;;;;;;;17.97;10.90;;;;;;;7.20;78.13;102426.63;5095469;28;20180;-66
2021/10/10 03:34:30;;;;;;;17.10;10.33;;;;;;;7.14;77.96;102438.22;5094803;28;20194;-66
2021/10/10 03:36:55;;;;;;;16.93;11.30;;;;;;;6.97;78.24;102432.22;5095382;28;20648;-66
2021/10/10 03:39:20;;;;;;;17.57;11.47;;;;;;;7.05;78.54;102426.81;5095477;28;20170;-66
2021/10/10 03:41:46;;;;;;;19.90;10.57;;;;;;;7.10;78.24;102431.19;5095455;28;20178;-66
2021/10/10 03:44:11;;;;;;;20.30;11.17;;;;;;;6.99;78.28;102427.75;5095544;28;20706;-65
2021/10/10 03:46:36;;;;;;;15.40;10.53;;;;;;;6.90;78.70;102430.53;5095521;28;20197;-65
2021/10/10 03:49:02;;;;;;;18.20;11.10;;;;;;;6.92;79.24;102427.88;5095545;28;20197;-66
2021/10/10 03:51:27;;;;;;;13.17;9.70;;;;;;;6.96;78.99;102424.28;5095070;28;20178;-66
2021/10/10 03:54:21;;;;;;;18.70;11.37;;;;;;;6.97;78.87;102418.06;5095037;28;20177;-66
2021/10/10 03:56:37;;;;;;;19.83;11.63;;;;;;;6.98;78.78;102412.72;5095128;28;20188;-66
2021/10/10 03:59:03;;;;;;;15.33;11.03;;;;;;;6.98;78.25;102406.53;5096273;28;20517;-66
2021/10/10 04:01:28;;;;;;;18.27;11.77;;;;;;;6.90;78.63;102412.84;5095098;28;20180;-66
2021/10/10 04:03:53;;;;;;;19.07;11.20;;;;;;;6.86;78.78;102405.81;5094808;28;20177;-66
2021/10/10 04:06:19;;;;;;;21.53;10.93;;;;;;;6.76;79.07;102404.19;5094964;28;20198;-66
2021/10/10 04:08:44;;;;;;;20.37;11.33;;;;;;;6.63;79.29;102399.03;5094374;28;20201;-66
2021/10/10 04:11:10;;;;;;;18.17;11.20;;;;;;;6.86;79.22;102402.28;5094558;28;20173;-65
2021/10/10 04:13:36;;;;;;;17.80;11.13;;;;;;;6.71;79.47;102402.50;5093060;28;20266;-65
2021/10/10 04:16:01;;;;;;;19.40;11.63;;;;;;;6.71;79.80;102399.84;5093089;28;20233;-65
2021/10/10 04:18:27;;;;;;;18.20;11.73;;;;;;;6.83;79.03;102389.94;5094592;28;20223;-65
2021/10/10 04:20:52;;;;;;;17.00;11.23;;;;;;;6.67;79.25;102380.38;5094220;28;20173;-66
2021/10/10 04:23:17;;;;;;;15.13;11.00;;;;;;;6.86;78.67;102389.91;5094225;28;20174;-65
2021/10/10 04:25:43;;;;;;;21.17;12.23;;;;;;;6.86;78.11;102387.25;5092771;28;20198;-67
2021/10/10 04:28:08;;;;;;;17.50;10.97;;;;;;;6.94;77.82;102389.78;5092945;28;20200;-67
2021/10/10 04:30:33;;;;;;;19.10;11.30;;;;;;;6.71;78.67;102383.91;5092838;28;20197;-66
2021/10/10 04:32:58;;;;;;;19.37;11.13;;;;;;;6.78;78.35;102390.91;5094456;28;20178;-66
2021/10/10 04:35:24;;;;;;;18.00;11.40;;;;;;;6.73;78.56;102387.41;5093930;28;20194;-66
2021/10/10 04:37:49;;;;;;;17.47;11.73;;;;;;;6.68;79.20;102398.06;5094219;28;20180;-66
2021/10/10 04:40:14;;;;;;;19.20;11.60;;;;;;;6.76;78.29;102395.34;5094016;28;20172;-66
2021/10/10 04:42:40;;;;;;;20.07;11.67;;;;;;;6.70;78.83;102400.72;5093937;28;20174;-66
2021/10/10 04:45:06;;;;;;;16.00;10.67;;;;;;;6.80;78.92;102395.28;5093724;28;20201;-66
2021/10/10 04:47:31;;;;;;;21.23;10.93;;;;;;;6.57;79.24;102397.31;5092588;28;20180;-66
2021/10/10 04:49:58;;;;;;;15.13;10.33;;;;;;;6.37;79.82;102397.56;5093940;28;20551;-66
2021/10/10 04:52:23;;;;;;;20.63;11.67;;;;;;;6.30;79.76;102387.88;5094154;28;20175;-66
2021/10/10 04:54:49;;;;;;;16.93;10.73;;;;;;;6.51;79.93;102382.34;5093663;28;20194;-66
2021/10/10 04:57:15;;;;;;;17.20;10.90;;;;;;;6.49;79.42;102384.16;5092453;28;20183;-66
2021/10/10 04:59:41;;;;;;;16.77;11.13;;;;;;;6.65;79.32;102378.66;5092928;28;20165;-66
2021/10/10 05:02:06;;;;;;;19.77;11.87;;;;;;;6.72;78.51;102383.00;5093607;28;20263;-66
2021/10/10 05:04:31;;;;;;;19.03;11.83;;;;;;;6.67;78.91;102374.19;5094171;28;20196;-66
2021/10/10 05:06:56;;;;;;;20.40;11.47;;;;;;;6.69;78.33;102377.72;5093639;28;20223;-66
2021/10/10 05:09:22;;;;;;;17.63;11.03;;;;;;;6.65;78.79;102382.19;5093614;28;20220;-67
2021/10/10 05:11:47;;;;;;;16.47;11.60;;;;;;;6.77;78.39;102381.19;5093463;28;20258;-66
2021/10/10 05:14:12;;;;;;;19.83;12.03;;;;;;;6.69;78.43;102375.97;5093756;28;20194;-66
2021/10/10 05:16:38;;;;;;;15.17;11.40;;;;;;;6.74;78.46;102376.78;5093733;28;20176;-66
2021/10/10 05:19:03;;;;;;;20.57;11.90;;;;;;;6.73;78.76;102369.72;5093404;28;20527;-66
2021/10/10 05:21:28;;;;;;;16.43;10.80;;;;;;;6.67;78.76;102369.78;5093450;28;20169;-66
2021/10/10 05:23:54;;;;;;;17.90;11.07;;;;;;;6.73;78.42;102371.50;5092940;28;20230;-67
2021/10/10 05:26:19;;;;;;;17.00;11.60;;;;;;;6.76;77.81;102371.47;5102290;22;20708;-71
2021/10/10 05:28:44;;;;;;;17.67;11.47;;;;;;;6.73;78.39;102374.16;5055036;28;20801;-70
2021/10/10 05:31:09;;;;;;;18.47;11.70;;;;;;;6.72;78.37;102375.94;5074099;28;20169;-70
2021/10/10 05:33:35;;;;;;;20.20;12.33;;;;;;;6.74;78.17;102374.13;5055924;28;20213;-69
2021/10/10 05:36:00;;;;;;;21.27;12.13;;;;;;;6.76;78.31;102371.47;5073156;28;20191;-70
2021/10/10 05:38:27;;;;;;;23.10;12.63;;;;;;;6.76;77.92;102372.34;5075088;28;20178;-69
2021/10/10 05:40:52;;;;;;;23.83;12.43;;;;;;;6.69;78.39;102367.09;5078174;28;20628;-70
2021/10/10 05:43:17;;;;;;;21.97;12.70;;;;;;;6.70;79.32;102377.72;5078424;28;20177;-72
2021/10/10 05:45:43;;;;;;;17.23;12.77;;;;;;;6.81;77.86;102380.25;5080180;28;20204;-69
2021/10/10 05:48:08;;;;;;;19.37;12.30;;;;;;;6.77;77.93;102378.53;5078243;28;20178;-70
2021/10/10 05:50:33;;;;;;;21.93;13.13;;;;;;;6.71;78.26;102378.59;5078063;28;20191;-71
2021/10/10 05:53:06;;;;;;;20.30;12.13;;;;;;;6.57;78.17;102376.97;5084771;28;20178;-70
2021/10/10 05:55:31;;;;;;;21.57;13.10;;;;;;;6.71;78.68;102378.59;5061637;28;20190;-69
2021/10/10 05:58:02;;;;;;;19.53;13.23;;;;;;;6.64;78.69;102383.09;5076274;28;20189;-71
2021/10/10 06:00:27;;;;;;;23.60;14.00;;;;;;;6.64;78.27;102375.13;5080513;28;20642;-70
2021/10/10 06:02:52;;;;;;;21.27;13.10;;;;;;;6.66;78.13;102381.28;5078139;28;20178;-69
2021/10/10 06:05:17;;;;;;;23.70;13.33;;;;;;;6.95;77.56;102383.56;5076475;28;20220;-70
2021/10/10 06:07:43;;;;;;;22.77;13.60;;;;;;;6.69;77.70;102375.06;5080885;28;20706;-70
2021/10/10 06:10:08;;;;;;;24.40;14.53;;;;;;;6.63;78.52;102380.44;5081528;28;20191;-70
2021/10/10 06:12:35;;;;;;;22.43;14.27;;;;;;;6.84;78.21;102380.19;5080938;28;20227;-71
2021/10/10 06:15:01;;;;;;;26.83;15.70;;;;;;;6.90;78.38;102385.41;5079844;28;20190;-70
2021/10/10 06:17:28;;;;;;;23.30;14.87;;;;;;;6.85;78.88;102392.56;5079174;28;20637;-69
2021/10/10 06:19:53;;;;;;;26.93;15.37;;;;;;;7.07;78.03;102388.75;5059976;28;20177;-70
2021/10/10 06:22:19;;;;;;;23.33;14.60;;;;;;;7.24;77.80;102395.59;5076209;28;20178;-71
2021/10/10 06:24:44;;;;;;;21.90;13.53;;;;;;;7.20;77.65;102390.31;5076812;28;20207;-70
2021/10/10 06:27:09;;;;;;;25.00;14.30;;;;;;;7.19;76.78;102388.56;5075642;28;20179;-69
2021/10/10 06:29:35;;;;;;;21.17;13.27;;;;;;;7.28;76.68;102381.34;5076824;28;20198;-69
2021/10/10 06:32:00;;;;;;;20.77;13.33;;;;;;;7.46;76.42;102386.41;5076618;28;20174;-70
2021/10/10 06:34:25;;;;;;;21.27;14.03;;;;;;;7.49;76.16;102389.00;5075246;28;20163;-70
2021/10/10 06:36:51;;;;;;;21.57;14.77;;;;;;;7.64;75.38;102382.56;5058798;28;20181;-69
2021/10/10 06:39:17;;;;;;;23.90;13.93;;;;;;;7.54;75.74;102379.19;5075332;28;20591;-70
2021/10/10 06:41:45;;;;;;;24.20;15.13;;;;;;;7.52;75.60;102384.53;5082208;28;20167;-70
2021/10/10 06:44:10;;;;;;;25.97;15.07;;;;;;;7.31;76.19;102386.63;5079257;28;20238;-70
2021/10/10 06:46:35;;;;;;;26.03;15.87;;;;;;;7.35;76.67;102388.31;5078510;28;20197;-72
2021/10/10 06:49:01;;;;;;;23.40;14.53;;;;;;;7.54;76.17;102384.50;5089010;28;20195;-69
2021/10/10 06:51:27;;;;;;;22.73;14.53;;;;;;;7.58;76.02;102385.31;5085881;28;20197;-71
2021/10/10 06:53:52;;;;;;;21.97;14.10;;;;;;;7.78;75.65;102381.44;5083596;28;20175;-70
2021/10/10 06:56:17;;;;;;;23.13;14.10;;;;;;;7.46;77.16;102392.59;5081477;28;20575;-71
2021/10/10 06:58:43;;;;;;;22.50;13.53;;;;;;;7.69;75.59;102384.25;5080675;28;20536;-71
2021/10/10 07:01:15;;;;;;;20.33;13.03;;;;;;;8.13;74.96;102391.44;5081766;28;20209;-71
2021/10/10 07:03:41;;;;;;;25.53;14.50;;;;;;;7.81;76.02;102380.53;5079610;28;20166;-71
2021/10/10 07:06:06;;;;;;;23.83;13.90;;;;;;;7.80;75.47;102390.28;5083422;28;20187;-71
2021/10/10 07:08:32;;;;;;;22.43;13.23;;;;;;;7.92;75.05;102380.34;5083806;28;20594;-71
2021/10/10 07:10:57;;;;;;;18.27;12.97;;;;;;;7.87;75.82;102390.19;5080723;28;20175;-71
2021/10/10 07:13:22;;;;;;;20.40;13.13;;;;;;;7.81;76.38;102378.75;5077809;28;20240;-71
2021/10/10 07:15:49;;;;;;;20.80;12.40;;;;;;;8.01;76.17;102385.47;5078044;28;20195;-70
2021/10/10 07:18:19;;;;;;;20.37;12.70;;;;;;;8.27;75.77;102393.88;5076196;28;20595;-71
2021/10/10 07:24:51;;;;;;;18.70;12.70;;;;;;;8.40;75.05;102392.75;5004011;28;20173;-70
2021/10/10 07:26:40;;;;;;;19.13;12.37;;;;;;;8.48;74.40;102389.94;5075495;28;20223;-72
2021/10/10 07:29:05;;;;;;;21.40;12.87;;;;;;;8.62;73.88;102389.69;5077327;28;20255;-71
2021/10/10 07:31:31;;;;;;;19.03;13.07;;;;;;;8.70;73.58;102390.41;5076765;28;20175;-70
2021/10/10 07:33:56;;;;;;;18.97;12.53;;;;;;;8.84;73.20;102391.00;5081860;28;20179;-71
2021/10/10 07:36:22;;;;;;;21.40;13.03;;;;;;;8.91;73.63;102391.72;5077048;28;20211;-70
2021/10/10 07:38:47;;;;;;;20.87;12.97;;;;;;;8.74;74.38;102385.00;5078452;28;20175;-69
2021/10/10 07:41:12;;;;;;;18.93;12.93;;;;;;;9.05;73.69;102379.88;5076283;28;20178;-71
2021/10/10 07:43:40;;;;;;;20.57;12.20;;;;;;;9.36;72.88;102379.19;5077628;28;20175;-70
2021/10/10 07:46:07;;;;;;;27.33;12.90;;;;;;;9.53;71.92;102382.31;5075901;28;20199;-70
2021/10/10 07:48:36;;;;;;;24.03;13.87;;;;;;;9.52;72.88;102380.56;5077203;28;20736;-71
2021/10/10 07:51:02;;;;;;;21.63;13.33;;;;;;;9.70;72.13;102384.59;5079285;28;20177;-69
2021/10/10 07:53:28;;;;;;;25.30;12.30;;;;;;;10.01;71.39;102384.66;5058696;28;20170;-70
2021/10/10 07:55:53;;;;;;;21.43;13.53;;;;;;;9.97;71.48;102383.00;5075608;28;20193;-70
2021/10/10 07:58:19;;;;;;;19.50;12.33;;;;;;;10.03;72.22;102377.50;5079579;28;20175;-71
2021/10/10 08:00:44;;;;;;;21.00;12.43;;;;;;;10.39;71.27;102386.34;5058356;28;20541;-70
2021/10/10 08:03:09;;;;;;;22.20;13.63;;;;;;;10.39;71.13;102382.81;5075710;28;20163;-71
2021/10/10 08:05:41;;;;;;;20.20;13.37;;;;;;;10.62;70.32;102381.25;5061588;28;20241;-71
2021/10/10 08:08:07;;;;;;;15.93;11.37;;;;;;;10.75;70.72;102389.78;5075291;28;20601;-71
2021/10/10 08:10:32;;;;;;;20.97;12.83;;;;;;;10.48;70.20;102369.22;5075066;28;20190;-70
2021/10/10 08:12:57;;;;;;;21.77;12.30;;;;;;;11.09;69.28;102383.44;5079976;28;20181;-72
2021/10/10 08:15:23;;;;;;;21.40;12.47;;;;;;;10.90;68.89;102378.66;5080640;28;20557;-70
2021/10/10 08:17:48;;;;;;;17.00;11.60;;;;;;;11.54;68.16;102383.81;5075388;28;20536;-70
2021/10/10 08:20:13;;;;;;;18.47;12.30;;;;;;;11.07;66.38;102353.22;5076073;28;20174;-69
2021/10/10 08:22:39;;;;;;;19.80;12.23;;;;;;;11.45;67.80;102376.94;5074098;28;20185;-69
2021/10/10 08:25:07;;;;;;;18.10;10.87;;;;;;;11.56;66.88;102368.59;5073460;28;20678;-69
2021/10/10 08:27:34;;;;;;;16.20;11.10;;;;;;;11.83;65.96;102370.38;5057062;28;20678;-70
2021/10/10 08:29:59;;;;;;;17.07;11.13;;;;;;;12.15;64.45;102355.88;5073321;28;20281;-69
2021/10/10 08:32:24;;;;;;;20.10;12.00;;;;;;;12.12;65.58;102365.81;5076320;28;20170;-72
2021/10/10 08:34:50;;;;;;;20.60;12.27;;;;;;;12.18;65.11;102363.78;5074738;28;20198;-71
2021/10/10 08:37:15;;;;;;;16.00;11.77;;;;;;;12.24;64.91;102359.16;5074373;28;20182;-69
2021/10/10 08:39:40;;;;;;;18.30;10.80;;;;;;;12.68;63.04;102352.19;5074018;28;20510;-72
2021/10/10 08:42:07;;;;;;;16.93;10.63;;;;;;;12.69;61.91;102332.50;5073879;28;20221;-72
2021/10/10 08:44:37;;;;;;;12.57;9.27;;;;;;;12.12;61.01;102304.25;5076889;28;20175;-70
2021/10/10 08:47:07;;;;;;;16.03;10.40;;;;;;;12.06;61.26;102312.50;5076129;28;20162;-70
2021/10/10 08:49:32;;;;;;;15.13;10.10;;;;;;;12.71;61.14;102338.69;5078120;28;20295;-69
2021/10/10 08:52:03;;;;;;;19.80;10.33;;;;;;;12.88;60.99;102338.03;5076826;28;20518;-70
2021/10/10 08:54:28;;;;;;;13.47;9.77;;;;;;;12.82;60.53;102329.28;5058287;28;20184;-70
2021/10/10 08:56:54;;;;;;;18.43;10.33;;;;;;;12.80;59.83;102311.53;5074764;28;20178;-69
2021/10/10 08:59:23;;;;;;;13.47;9.40;;;;;;;13.00;59.61;102314.28;5073141;28;20177;-69
2021/10/10 09:01:48;;;;;;;12.70;9.23;;;;;;;12.98;59.01;102307.25;5073822;28;20189;-72
2021/10/10 09:04:14;;;;;;;19.50;9.70;;;;;;;13.23;59.63;102312.53;5073591;28;20541;-70
2021/10/10 09:06:43;;;;;;;17.00;10.10;;;;;;;13.50;58.43;102302.50;5074514;28;20183;-70
2021/10/10 09:09:34;;;;;;;13.27;9.37;;;;;;;12.90;58.52;102288.78;5074966;28;20285;-70
2021/10/10 09:12:04;;;;;;;19.27;10.47;;;;;;;13.26;58.23;102297.19;5057176;28;20183;-68
2021/10/10 09:14:40;;;;;;;15.47;9.30;;;;;;;13.46;57.24;102285.66;5073591;28;20166;-72
2021/10/10 09:17:22;;;;;;;17.70;9.80;;;;;;;13.02;58.58;102290.13;5073194;28;20159;-69
2021/10/10 09:19:50;;;;;;;15.67;9.20;;;;;;;13.30;57.75;102290.75;5072672;28;20197;-69
2021/10/10 09:22:15;;;;;;;11.40;8.37;;;;;;;13.27;56.81;102271.25;5056257;28;20175;-71
2021/10/10 09:24:40;;;;;;;15.87;8.43;;;;;;;13.61;57.61;102297.53;5056199;28;20218;-71
2021/10/10 09:27:11;;;;;;;13.53;9.10;;;;;;;14.06;56.40;102287.47;5056384;28;20256;-69
2021/10/10 09:29:39;;;;;;;14.93;8.17;;;;;;;14.22;55.59;102273.38;5077153;28;20187;-71
2021/10/10 09:32:19;;;;;;;18.10;9.37;;;;;;;14.33;56.09;102293.44;5074567;28;20167;-69
2021/10/10 09:34:46;;;;;;;15.83;9.27;;;;;;;14.08;56.21;102272.19;5073840;28;20186;-69
2021/10/10 09:40:04;;;;;;;12.67;8.87;;;;;;;14.33;55.02;102252.28;5073735;28;20169;-70
2021/10/10 09:42:31;;;;;;;14.03;9.00;;;;;;;14.19;54.35;102242.19;5057476;28;20173;-69
2021/10/10 09:45:11;;;;;;;13.50;7.90;;;;;;;14.55;53.50;102250.38;5072473;28;20190;-70
2021/10/10 09:47:49;;;;;;;18.10;7.63;;;;;;;14.41;54.49;102252.78;5072226;28;20159;-70
2021/10/10 09:50:14;;;;;;;14.40;8.07;;;;;;;14.26;53.51;102237.41;5055804;28;20198;-70
2021/10/10 09:52:40;;;;;;;14.23;7.20;;;;;;;14.21;53.69;102234.91;5075160;28;20183;-70
2021/10/10 09:55:05;;;;;;;11.77;7.23;;;;;;;14.13;53.52;102217.44;5075788;28;20607;-71
2021/10/10 09:57:33;;;;;;;12.20;7.70;;;;;;;14.14;51.93;102186.94;5074668;28;20200;-69
2021/10/10 09:59:58;;;;;;;11.57;6.87;;;;;;;13.87;52.41;102184.59;5073691;28;20194;-72
2021/10/10 10:02:37;;;;;;;11.13;6.30;;;;;;;14.87;52.13;102237.22;5075319;28;20591;-71
2021/10/10 10:05:03;;;;;;;13.00;7.13;;;;;;;15.01;51.48;102223.97;5055416;28;20289;-69
2021/10/10 10:07:29;;;;;;;13.27;6.47;;;;;;;14.60;50.44;102177.63;5072545;28;20210;-70
2021/10/10 10:09:54;;;;;;;9.90;6.33;;;;;;;13.81;51.32;102163.41;5072745;28;20675;-69
2021/10/10 10:12:22;;;;;;;10.07;6.17;;;;;;;14.00;50.65;102166.97;5072301;28;20640;-70
2021/10/10 10:14:53;;;;;;;12.73;5.87;;;;;;;14.18;51.11;102173.31;5055682;28;20206;-70
2021/10/10 10:17:22;;;;;;;11.07;6.23;;;;;;;14.58;51.34;102198.31;5072716;28;20179;-70
2021/10/10 10:19:48;;;;;;;10.77;6.33;;;;;;;14.03;51.99;102174.88;5075743;28;20228;-70
2021/10/10 10:22:13;;;;;;;11.60;6.10;;;;;;;14.34;50.86;102176.13;5076989;28;20167;-69
2021/10/10 10:24:41;;;;;;;15.90;6.00;;;;;;;15.04;49.86;102202.31;5073739;28;20202;-70
2021/10/10 10:27:07;;;;;;;13.53;6.50;;;;;;;14.52;50.42;102177.13;5059305;28;20178;-70
2021/10/10 10:29:33;;;;;;;11.47;6.40;;;;;;;14.78;50.76;102197.31;5059567;28;20305;-69
2021/10/10 10:32:00;;;;;;;13.13;6.37;;;;;;;15.43;50.35;102212.84;5058577;28;20187;-69
2021/10/10 10:34:27;;;;;;;7.77;5.27;;;;;;;15.61;49.20;102176.09;5075836;28;20182;-70
2021/10/10 10:36:58;;;;;;;7.43;5.80;;;;;;;15.79;48.57;102176.94;5075685;28;20652;-69
2021/10/10 10:39:33;;;;;;;13.50;6.00;;;;;;;16.02;48.31;102192.72;5076362;28;20071;-69
2021/10/10 10:41:59;;;;;;;9.87;6.17;;;;;;;14.56;50.11;102139.28;5075655;28;19908;-69
2021/10/10 10:44:45;;;;;;;13.47;6.17;;;;;;;15.09;49.35;102173.34;5058247;28;20548;-70
2021/10/10 10:47:15;;;;;;;11.73;5.90;;;;;;;16.15;46.65;102164.16;5075504;28;20213;-69
2021/10/10 10:49:53;;;;;;;11.00;5.80;;;;;;;17.05;45.79;102187.81;5075274;28;20205;-70
2021/10/10 10:52:27;;;;;;;11.53;6.00;;;;;;;17.14;45.56;102171.97;5075726;28;20240;-69
2021/10/10 10:55:13;;;;;;;15.23;5.90;;;;;;;18.04;44.66;102171.00;5074696;28;20598;-69
2021/10/10 10:57:41;;;;;;;;;;;;;;;19.75;42.40;102205.66;5078100;28;20024;-69
2021/10/10 11:00:11;;;;;;;7.57;4.73;;;;;;;21.89;38.38;102164.22;5059488;28;19919;-70
2021/10/10 11:02:54;;;;;;;8.00;5.50;;;;;;;21.20;39.30;102150.63;5059758;28;20159;-68
2021/10/10 11:05:47;;;;;;;13.83;5.57;;;;;;;24.76;35.48;102210.53;5074792;28;20282;-70
2021/10/10 11:08:15;;;;;;;8.07;5.03;;;;;;;23.24;37.00;102171.22;5075172;28;20543;-71
2021/10/10 11:11:03;;;;;;;9.40;5.43;;;;;;;21.73;36.90;102068.63;5075345;28;20230;-69
2021/10/10 11:13:31;;;;;;;10.27;5.23;;;;;;;22.95;36.52;102115.66;5074984;28;20191;-69
2021/10/10 11:16:03;;;;;;;9.37;5.87;;;;;;;23.20;36.78;102158.00;5076156;28;20252;-69
2021/10/10 11:18:29;;;;;;;8.27;5.23;;;;;;;22.27;37.81;102095.03;5076288;28;20175;-70
2021/10/10 11:20:57;;;;;;;11.13;4.87;;;;;;;21.92;37.07;102074.28;5074986;28;20655;-70
2021/10/10 11:23:23;;;;;;;10.73;5.23;;;;;;;22.56;36.65;102108.94;5074665;28;20179;-69